sensor_id;sensor_type;location;lat;lon;timestamp;pressure;altitude;pressure_sealevel;temperature;humidity
63654;BME280;49809;47.418;19.080;2023-04-22T00:03:34;100315.03;;;8.26;94.11
63654;BME280;49809;47.418;19.080;2023-04-22T00:06:57;100309.75;;;8.26;94.34
63654;BME280;49809;47.418;19.080;2023-04-22T00:10:21;100312.41;;;8.26;94.48
63654;BME280;49809;47.418;19.080;2023-04-22T00:13:24;100307.03;;;8.21;94.08
63654;BME280;49809;47.418;19.080;2023-04-22T00:16:48;100304.38;;;8.21;94.15
63654;BME280;49809;47.418;19.080;2023-04-22T00:19:54;100307.03;;;8.21;94.57
63654;BME280;49809;47.418;19.080;2023-04-22T00:22:58;100317.31;;;8.23;95.13
63654;BME280;49809;47.418;19.080;2023-04-22T00:26:04;100305.41;;;8.20;95.43
63654;BME280;49809;47.418;19.080;2023-04-22T00:29:08;100311.97;;;8.18;94.24
63654;BME280;49809;47.418;19.080;2023-04-22T00:32:13;100298.78;;;8.18;94.44
63654;BME280;49809;47.418;19.080;2023-04-22T00:35:36;100304.38;;;8.21;94.82
63654;BME280;49809;47.418;19.080;2023-04-22T00:38:47;100309.31;;;8.29;95.49
63654;BME280;49809;47.418;19.080;2023-04-22T00:42:12;100303.81;;;8.31;95.00
63654;BME280;49809;47.418;19.080;2023-04-22T00:45:16;100303.09;;;8.36;94.38
63654;BME280;49809;47.418;19.080;2023-04-22T00:48:43;100307.44;;;8.42;94.11
63654;BME280;49809;47.418;19.080;2023-04-22T00:51:47;100304.87;;;8.47;93.72
63654;BME280;49809;47.418;19.080;2023-04-22T00:55:12;100309.09;;;8.48;93.56
63654;BME280;49809;47.418;19.080;2023-04-22T00:58:18;100307.63;;;8.52;93.34
63654;BME280;49809;47.418;19.080;2023-04-22T01:01:42;100303.91;;;8.53;92.61
63654;BME280;49809;47.418;19.080;2023-04-22T01:05:06;100309.78;;;8.55;92.73
63654;BME280;49809;47.418;19.080;2023-04-22T01:08:33;100309.06;;;8.59;92.09
63654;BME280;49809;47.418;19.080;2023-04-22T01:11:37;100311.94;;;8.58;91.77
63654;BME280;49809;47.418;19.080;2023-04-22T01:14:45;100309.84;;;8.60;92.99
63654;BME280;49809;47.418;19.080;2023-04-22T01:18:08;100312.41;;;8.55;92.63
63654;BME280;49809;47.418;19.080;2023-04-22T01:21:13;100315.53;;;8.52;92.02
63654;BME280;49809;47.418;19.080;2023-04-22T01:24:20;100315.19;;;8.48;92.71
63654;BME280;49809;47.418;19.080;2023-04-22T01:27:34;100316.38;;;8.41;92.95
63654;BME280;49809;47.418;19.080;2023-04-22T01:31:08;100318.91;;;8.36;92.65
63654;BME280;49809;47.418;19.080;2023-04-22T01:34:36;100318.59;;;8.32;92.45
63654;BME280;49809;47.418;19.080;2023-04-22T01:38:00;100313.31;;;8.20;92.72
63654;BME280;49809;47.418;19.080;2023-04-22T01:41:06;100319.09;;;8.06;93.08
63654;BME280;49809;47.418;19.080;2023-04-22T01:44:13;100313.41;;;7.97;93.70
63654;BME280;49809;47.418;19.080;2023-04-22T01:47:20;100312.28;;;7.93;94.27
63654;BME280;49809;47.418;19.080;2023-04-22T01:50:23;100321.00;;;7.82;94.13
63654;BME280;49809;47.418;19.080;2023-04-22T01:54:28;100320.53;;;7.85;95.10
63654;BME280;49809;47.418;19.080;2023-04-22T01:57:35;100327.06;;;7.82;95.19
63654;BME280;49809;47.418;19.080;2023-04-22T02:00:43;100324.56;;;7.76;95.46
63654;BME280;49809;47.418;19.080;2023-04-22T02:04:32;100321.81;;;7.71;95.75
63654;BME280;49809;47.418;19.080;2023-04-22T02:07:35;100314.38;;;7.68;95.50
63654;BME280;49809;47.418;19.080;2023-04-22T02:10:41;100313.81;;;7.66;94.71
63654;BME280;49809;47.418;19.080;2023-04-22T02:14:05;100318.75;;;7.62;94.68
63654;BME280;49809;47.418;19.080;2023-04-22T02:17:46;100308.19;;;7.62;95.02
63654;BME280;49809;47.418;19.080;2023-04-22T02:21:14;100319.31;;;7.53;94.84
63654;BME280;49809;47.418;19.080;2023-04-22T02:24:38;100317.72;;;7.52;95.62
63654;BME280;49809;47.418;19.080;2023-04-22T02:27:45;100311.78;;;7.45;95.02
63654;BME280;49809;47.418;19.080;2023-04-22T02:31:08;100319.88;;;7.31;95.71
63654;BME280;49809;47.418;19.080;2023-04-22T02:34:15;100312.78;;;7.32;96.63
63654;BME280;49809;47.418;19.080;2023-04-22T02:37:19;100316.59;;;7.24;95.96
63654;BME280;49809;47.418;19.080;2023-04-22T02:40:24;100317.50;;;7.18;95.64
63654;BME280;49809;47.418;19.080;2023-04-22T02:43:48;100314.53;;;7.15;96.49
63654;BME280;49809;47.418;19.080;2023-04-22T02:47:37;100308.81;;;7.06;95.98
63654;BME280;49809;47.418;19.080;2023-04-22T02:51:05;100311.31;;;7.01;96.76
63654;BME280;49809;47.418;19.080;2023-04-22T02:54:12;100309.78;;;6.93;96.66
63654;BME280;49809;47.418;19.080;2023-04-22T02:57:16;100307.97;;;6.94;98.04
63654;BME280;49809;47.418;19.080;2023-04-22T03:00:19;100311.97;;;6.85;98.41
63654;BME280;49809;47.418;19.080;2023-04-22T03:03:46;100316.19;;;6.86;98.49
63654;BME280;49809;47.418;19.080;2023-04-22T03:07:11;100311.72;;;6.75;98.32
63654;BME280;49809;47.418;19.080;2023-04-22T03:10:39;100313.19;;;6.71;98.02
63654;BME280;49809;47.418;19.080;2023-04-22T03:14:18;100323.44;;;6.61;98.23
63654;BME280;49809;47.418;19.080;2023-04-22T03:17:31;100313.06;;;6.66;99.09
63654;BME280;49809;47.418;19.080;2023-04-22T03:20:49;100317.03;;;6.57;98.67
63654;BME280;49809;47.418;19.080;2023-04-22T03:24:18;100320.69;;;6.55;99.11
63654;BME280;49809;47.418;19.080;2023-04-22T03:27:59;100326.97;;;6.54;99.39
63654;BME280;49809;47.418;19.080;2023-04-22T03:31:36;100322.16;;;6.51;99.71
63654;BME280;49809;47.418;19.080;2023-04-22T03:35:19;100326.41;;;6.52;99.76
63654;BME280;49809;47.418;19.080;2023-04-22T03:39:05;100324.81;;;6.51;99.48
63654;BME280;49809;47.418;19.080;2023-04-22T03:42:22;100330.62;;;6.53;100.00
63654;BME280;49809;47.418;19.080;2023-04-22T03:45:50;100324.94;;;6.57;100.00
63654;BME280;49809;47.418;19.080;2023-04-22T03:48:56;100339.69;;;6.58;100.00
63654;BME280;49809;47.418;19.080;2023-04-22T03:52:21;100337.75;;;6.65;100.00
63654;BME280;49809;47.418;19.080;2023-04-22T03:55:58;100333.22;;;6.72;100.00
63654;BME280;49809;47.418;19.080;2023-04-22T03:59:40;100332.84;;;6.68;100.00
63654;BME280;49809;47.418;19.080;2023-04-22T04:02:57;100337.00;;;6.76;99.93
63654;BME280;49809;47.418;19.080;2023-04-22T04:06:23;100334.50;;;6.81;99.85
63654;BME280;49809;47.418;19.080;2023-04-22T04:09:43;100341.91;;;6.84;99.86
63654;BME280;49809;47.418;19.080;2023-04-22T04:13:27;100346.75;;;6.87;99.55
63654;BME280;49809;47.418;19.080;2023-04-22T04:17:12;100340.47;;;6.99;99.92
63654;BME280;49809;47.418;19.080;2023-04-22T04:20:30;100346.88;;;7.04;99.55
63654;BME280;49809;47.418;19.080;2023-04-22T04:24:02;100348.28;;;7.06;98.50
63654;BME280;49809;47.418;19.080;2023-04-22T04:27:22;100350.56;;;7.14;97.99
63654;BME280;49809;47.418;19.080;2023-04-22T04:31:06;100354.94;;;7.20;97.68
63654;BME280;49809;47.418;19.080;2023-04-22T04:34:58;100358.81;;;7.29;97.45
63654;BME280;49809;47.418;19.080;2023-04-22T04:38:45;100367.41;;;7.48;97.19
63654;BME280;49809;47.418;19.080;2023-04-22T04:42:07;100365.25;;;7.57;95.51
63654;BME280;49809;47.418;19.080;2023-04-22T04:45:32;100365.25;;;7.68;95.20
63654;BME280;49809;47.418;19.080;2023-04-22T04:49:04;100373.47;;;7.83;94.60
63654;BME280;49809;47.418;19.080;2023-04-22T04:52:25;100371.25;;;8.04;93.92
63654;BME280;49809;47.418;19.080;2023-04-22T04:56:05;100371.91;;;8.22;92.86
63654;BME280;49809;47.418;19.080;2023-04-22T04:59:32;100375.06;;;8.48;92.13
63654;BME280;49809;47.418;19.080;2023-04-22T05:02:55;100372.25;;;8.66;91.54
63654;BME280;49809;47.418;19.080;2023-04-22T05:06:45;100377.22;;;8.79;91.23
63654;BME280;49809;47.418;19.080;2023-04-22T05:10:11;100385.41;;;8.94;89.40
63654;BME280;49809;47.418;19.080;2023-04-22T05:13:55;100379.97;;;9.18;88.69
63654;BME280;49809;47.418;19.080;2023-04-22T05:17:42;100377.75;;;9.43;86.93
63654;BME280;49809;47.418;19.080;2023-04-22T05:21:23;100377.84;;;9.70;84.99
63654;BME280;49809;47.418;19.080;2023-04-22T05:24:49;100387.47;;;9.97;83.52
63654;BME280;49809;47.418;19.080;2023-04-22T05:28:17;100381.28;;;10.09;82.87
63654;BME280;49809;47.418;19.080;2023-04-22T05:31:53;100374.47;;;10.13;83.55
63654;BME280;49809;47.418;19.080;2023-04-22T05:35:20;100383.53;;;10.17;82.38
63654;BME280;49809;47.418;19.080;2023-04-22T05:38:49;100384.22;;;10.29;81.44
63654;BME280;49809;47.418;19.080;2023-04-22T05:42:24;100378.47;;;10.37;81.35
63654;BME280;49809;47.418;19.080;2023-04-22T05:45:59;100379.28;;;10.59;81.09
63654;BME280;49809;47.418;19.080;2023-04-22T05:49:30;100382.72;;;10.86;78.54
63654;BME280;49809;47.418;19.080;2023-04-22T05:52:56;100389.19;;;11.01;77.88
63654;BME280;49809;47.418;19.080;2023-04-22T05:56:21;100381.34;;;11.11;76.63
63654;BME280;49809;47.418;19.080;2023-04-22T05:59:27;100390.50;;;11.30;75.70
63654;BME280;49809;47.418;19.080;2023-04-22T06:07:04;100390.06;;;11.75;73.21
63654;BME280;49809;47.418;19.080;2023-04-22T06:10:22;100395.22;;;12.02;72.00
63654;BME280;49809;47.418;19.080;2023-04-22T06:13:50;100386.31;;;12.28;68.66
63654;BME280;49809;47.418;19.080;2023-04-22T06:17:07;100394.41;;;12.58;67.06
63654;BME280;49809;47.418;19.080;2023-04-22T06:20:52;100399.72;;;12.74;66.57
63654;BME280;49809;47.418;19.080;2023-04-22T06:24:21;100396.06;;;13.05;64.74
63654;BME280;49809;47.418;19.080;2023-04-22T06:27:57;100405.66;;;13.16;62.72
63654;BME280;49809;47.418;19.080;2023-04-22T06:31:32;100407.78;;;13.55;63.27
63654;BME280;49809;47.418;19.080;2023-04-22T06:34:50;100400.56;;;13.65;61.37
63654;BME280;49809;47.418;19.080;2023-04-22T06:41:51;100398.69;;;13.76;57.83
63654;BME280;49809;47.418;19.080;2023-04-22T06:52:44;100395.00;;;13.62;61.34
63654;BME280;49809;47.418;19.080;2023-04-22T06:55:59;100397.13;;;13.65;60.13
63654;BME280;49809;47.418;19.080;2023-04-22T06:59:34;100394.41;;;13.80;61.14
63654;BME280;49809;47.418;19.080;2023-04-22T07:02:56;100396.56;;;13.78;61.24
63654;BME280;49809;47.418;19.080;2023-04-22T07:06:29;100393.09;;;13.82;61.00
63654;BME280;49809;47.418;19.080;2023-04-22T07:10:00;100402.91;;;13.92;62.39
63654;BME280;49809;47.418;19.080;2023-04-22T07:13:39;100402.34;;;14.05;61.08
63654;BME280;49809;47.418;19.080;2023-04-22T07:17:23;100395.31;;;14.34;58.97
63654;BME280;49809;47.418;19.080;2023-04-22T07:20:54;100398.75;;;14.89;58.37
63654;BME280;49809;47.418;19.080;2023-04-22T07:24:28;100395.44;;;15.07;54.24
63654;BME280;49809;47.418;19.080;2023-04-22T07:27:53;100395.53;;;15.60;52.68
63654;BME280;49809;47.418;19.080;2023-04-22T07:31:26;100396.56;;;15.64;50.07
63654;BME280;49809;47.418;19.080;2023-04-22T07:35:01;100390.91;;;15.94;50.29
63654;BME280;49809;47.418;19.080;2023-04-22T07:38:32;100401.62;;;16.56;49.63
63654;BME280;49809;47.418;19.080;2023-04-22T07:42:09;100395.50;;;17.11;46.65
63654;BME280;49809;47.418;19.080;2023-04-22T07:45:36;100393.69;;;17.39;46.76
63654;BME280;49809;47.418;19.080;2023-04-22T07:49:09;100396.59;;;18.02;44.98
63654;BME280;49809;47.418;19.080;2023-04-22T07:52:42;100393.03;;;17.47;43.95
63654;BME280;49809;47.418;19.080;2023-04-22T07:56:01;100397.78;;;18.10;43.50
63654;BME280;49809;47.418;19.080;2023-04-22T07:59:38;100390.91;;;18.31;41.40
63654;BME280;49809;47.418;19.080;2023-04-22T08:03:10;100388.56;;;19.24;40.04
63654;BME280;49809;47.418;19.080;2023-04-22T08:07:18;100385.16;;;19.63;39.36
63654;BME280;49809;47.418;19.080;2023-04-22T08:10:52;100389.97;;;19.21;38.31
63654;BME280;49809;47.418;19.080;2023-04-22T08:14:39;100381.34;;;20.60;34.22
63654;BME280;49809;47.418;19.080;2023-04-22T08:18:07;100379.44;;;21.29;34.99
63654;BME280;49809;47.418;19.080;2023-04-22T08:21:11;100380.91;;;21.64;32.56
63654;BME280;49809;47.418;19.080;2023-04-22T08:24:16;100385.87;;;22.50;32.29
63654;BME280;49809;47.418;19.080;2023-04-22T08:27:36;100377.91;;;22.54;28.62
63654;BME280;49809;47.418;19.080;2023-04-22T08:31:20;100384.38;;;22.82;29.48
63654;BME280;49809;47.418;19.080;2023-04-22T08:35:02;100387.47;;;23.26;28.48
63654;BME280;49809;47.418;19.080;2023-04-22T08:38:06;100382.72;;;23.23;28.46
63654;BME280;49809;47.418;19.080;2023-04-22T08:41:49;100382.94;;;23.63;27.14
63654;BME280;49809;47.418;19.080;2023-04-22T08:45:31;100377.88;;;23.98;27.02
63654;BME280;49809;47.418;19.080;2023-04-22T08:48:58;100384.88;;;23.87;27.43
63654;BME280;49809;47.418;19.080;2023-04-22T08:52:08;100386.16;;;23.11;27.53
63654;BME280;49809;47.418;19.080;2023-04-22T08:55:48;100388.06;;;24.65;27.27
63654;BME280;49809;47.418;19.080;2023-04-22T08:58:52;100372.59;;;24.25;25.84
63654;BME280;49809;47.418;19.080;2023-04-22T09:02:01;100376.78;;;25.03;26.15
63654;BME280;49809;47.418;19.080;2023-04-22T09:05:39;100372.16;;;25.63;24.96
63654;BME280;49809;47.418;19.080;2023-04-22T09:09:22;100364.69;;;26.07;24.45
63654;BME280;49809;47.418;19.080;2023-04-22T09:12:47;100372.09;;;26.25;24.61
63654;BME280;49809;47.418;19.080;2023-04-22T09:16:24;100387.19;;;26.07;22.70
63654;BME280;49809;47.418;19.080;2023-04-22T09:20:02;100367.66;;;26.02;24.02
63654;BME280;49809;47.418;19.080;2023-04-22T09:28:16;100384.31;;;26.89;23.02
63654;BME280;49809;47.418;19.080;2023-04-22T09:31:47;100373.00;;;26.68;23.06
63654;BME280;49809;47.418;19.080;2023-04-22T09:35:12;100372.81;;;26.96;22.06
63654;BME280;49809;47.418;19.080;2023-04-22T09:38:20;100376.16;;;26.00;24.00
63654;BME280;49809;47.418;19.080;2023-04-22T09:41:47;100370.94;;;24.61;26.64
63654;BME280;49809;47.418;19.080;2023-04-22T09:45:00;100369.59;;;24.95;24.06
63654;BME280;49809;47.418;19.080;2023-04-22T09:52:25;100354.88;;;27.79;22.58
63654;BME280;49809;47.418;19.080;2023-04-22T10:00:16;100354.44;;;28.59;20.58
63654;BME280;49809;47.418;19.080;2023-04-22T10:03:19;100338.66;;;27.86;23.74
63654;BME280;49809;47.418;19.080;2023-04-22T10:06:31;100337.66;;;27.71;22.31
63654;BME280;49809;47.418;19.080;2023-04-22T10:09:37;100343.84;;;26.65;23.74
63654;BME280;49809;47.418;19.080;2023-04-22T10:12:41;100342.34;;;27.74;22.41
63654;BME280;49809;47.418;19.080;2023-04-22T10:15:50;100328.37;;;27.76;21.59
63654;BME280;49809;47.418;19.080;2023-04-22T10:19:19;100327.50;;;28.80;20.83
63654;BME280;49809;47.418;19.080;2023-04-22T10:22:24;100321.44;;;28.98;19.95
63654;BME280;49809;47.418;19.080;2023-04-22T10:25:30;100330.38;;;28.94;19.92
63654;BME280;49809;47.418;19.080;2023-04-22T10:28:42;100317.34;;;28.81;19.92
63654;BME280;49809;47.418;19.080;2023-04-22T10:32:27;100323.50;;;28.41;21.41
63654;BME280;49809;47.418;19.080;2023-04-22T10:39:19;100311.09;;;28.77;20.92
63654;BME280;49809;47.418;19.080;2023-04-22T10:43:05;100307.09;;;28.07;21.79
63654;BME280;49809;47.418;19.080;2023-04-22T10:50:31;100307.50;;;27.57;21.97
63654;BME280;49809;47.418;19.080;2023-04-22T10:53:58;100306.06;;;28.45;20.26
63654;BME280;49809;47.418;19.080;2023-04-22T10:57:19;100315.72;;;27.60;22.05
63654;BME280;49809;47.418;19.080;2023-04-22T11:00:28;100308.41;;;25.37;22.79
63654;BME280;49809;47.418;19.080;2023-04-22T11:04:20;100302.81;;;28.06;22.20
63654;BME280;49809;47.418;19.080;2023-04-22T11:10:42;100304.13;;;28.79;20.65
63654;BME280;49809;47.418;19.080;2023-04-22T11:14:07;100307.94;;;29.56;20.54
63654;BME280;49809;47.418;19.080;2023-04-22T11:17:32;100294.91;;;29.86;20.08
63654;BME280;49809;47.418;19.080;2023-04-22T11:20:36;100295.13;;;29.63;20.42
63654;BME280;49809;47.418;19.080;2023-04-22T11:23:48;100295.00;;;29.02;20.08
63654;BME280;49809;47.418;19.080;2023-04-22T11:26:54;100296.53;;;28.32;21.97
63654;BME280;49809;47.418;19.080;2023-04-22T11:30:03;100287.59;;;27.49;21.48
63654;BME280;49809;47.418;19.080;2023-04-22T11:33:13;100298.28;;;26.55;22.07
63654;BME280;49809;47.418;19.080;2023-04-22T11:36:44;100289.25;;;27.12;23.15
63654;BME280;49809;47.418;19.080;2023-04-22T11:39:49;100281.78;;;30.06;19.66
63654;BME280;49809;47.418;19.080;2023-04-22T11:43:28;100290.03;;;29.58;19.19
63654;BME280;49809;47.418;19.080;2023-04-22T11:46:33;100287.50;;;26.39;21.86
63654;BME280;49809;47.418;19.080;2023-04-22T11:50:04;100289.13;;;25.89;22.66
63654;BME280;49809;47.418;19.080;2023-04-22T11:53:18;100285.03;;;27.86;21.98
63654;BME280;49809;47.418;19.080;2023-04-22T11:56:29;100285.56;;;28.92;19.71
63654;BME280;49809;47.418;19.080;2023-04-22T11:59:40;100281.44;;;28.08;20.86
63654;BME280;49809;47.418;19.080;2023-04-22T12:02:54;100279.47;;;25.10;22.75
63654;BME280;49809;47.418;19.080;2023-04-22T12:06:00;100283.12;;;25.33;23.10
63654;BME280;49809;47.418;19.080;2023-04-22T12:09:12;100275.09;;;25.37;22.58
63654;BME280;49809;47.418;19.080;2023-04-22T12:12:18;100279.53;;;25.76;23.13
63654;BME280;49809;47.418;19.080;2023-04-22T12:15:25;100279.00;;;24.37;24.29
63654;BME280;49809;47.418;19.080;2023-04-22T12:18:52;100276.06;;;24.97;24.09
63654;BME280;49809;47.418;19.080;2023-04-22T12:21:58;100271.28;;;24.11;24.55
63654;BME280;49809;47.418;19.080;2023-04-22T12:25:30;100270.84;;;24.77;23.97
63654;BME280;49809;47.418;19.080;2023-04-22T12:28:37;100271.13;;;23.79;24.75
63654;BME280;49809;47.418;19.080;2023-04-22T12:31:41;100267.44;;;25.07;23.87
63654;BME280;49809;47.418;19.080;2023-04-22T12:34:46;100277.75;;;23.94;24.11
63654;BME280;49809;47.418;19.080;2023-04-22T12:37:51;100272.47;;;24.38;23.63
63654;BME280;49809;47.418;19.080;2023-04-22T12:40:55;100271.34;;;24.66;24.12
63654;BME280;49809;47.418;19.080;2023-04-22T12:43:59;100273.63;;;23.60;25.55
63654;BME280;49809;47.418;19.080;2023-04-22T12:47:02;100262.50;;;24.02;24.84
63654;BME280;49809;47.418;19.080;2023-04-22T12:50:41;100262.84;;;24.24;24.68
63654;BME280;49809;47.418;19.080;2023-04-22T12:53:45;100264.34;;;22.47;26.68
63654;BME280;49809;47.418;19.080;2023-04-22T12:56:54;100256.34;;;23.04;26.41
63654;BME280;49809;47.418;19.080;2023-04-22T12:59:57;100255.41;;;21.93;27.55
63654;BME280;49809;47.418;19.080;2023-04-22T13:03:08;100266.78;;;21.69;27.69
63654;BME280;49809;47.418;19.080;2023-04-22T13:06:12;100256.53;;;22.13;27.10
63654;BME280;49809;47.418;19.080;2023-04-22T13:09:37;100250.97;;;21.88;27.34
63654;BME280;49809;47.418;19.080;2023-04-22T13:17:10;100237.34;;;23.13;27.59
63654;BME280;49809;47.418;19.080;2023-04-22T13:20:33;100225.16;;;22.94;26.27
63654;BME280;49809;47.418;19.080;2023-04-22T13:24:02;100234.50;;;23.09;28.30
63654;BME280;49809;47.418;19.080;2023-04-22T13:27:51;100236.69;;;22.71;28.97
63654;BME280;49809;47.418;19.080;2023-04-22T13:30:57;100238.41;;;22.87;27.88
63654;BME280;49809;47.418;19.080;2023-04-22T13:34:22;100238.09;;;23.01;27.10
63654;BME280;49809;47.418;19.080;2023-04-22T13:37:37;100230.97;;;22.72;27.00
63654;BME280;49809;47.418;19.080;2023-04-22T13:41:03;100223.34;;;22.74;29.33
63654;BME280;49809;47.418;19.080;2023-04-22T13:44:16;100230.56;;;22.29;28.76
63654;BME280;49809;47.418;19.080;2023-04-22T13:47:21;100225.06;;;21.16;29.00
63654;BME280;49809;47.418;19.080;2023-04-22T13:50:31;100219.00;;;20.81;29.93
63654;BME280;49809;47.418;19.080;2023-04-22T13:53:41;100222.34;;;20.53;30.35
63654;BME280;49809;47.418;19.080;2023-04-22T13:57:16;100224.59;;;21.06;29.46
63654;BME280;49809;47.418;19.080;2023-04-22T14:00:22;100216.31;;;20.81;28.58
63654;BME280;49809;47.418;19.080;2023-04-22T14:03:30;100216.56;;;21.44;29.17
63654;BME280;49809;47.418;19.080;2023-04-22T14:06:54;100212.34;;;21.55;29.42
63654;BME280;49809;47.418;19.080;2023-04-22T14:13:59;100215.34;;;21.62;29.15
63654;BME280;49809;47.418;19.080;2023-04-22T14:21:38;100214.00;;;21.09;28.12
63654;BME280;49809;47.418;19.080;2023-04-22T14:24:47;100209.66;;;21.55;28.45
63654;BME280;49809;47.418;19.080;2023-04-22T14:28:12;100216.47;;;21.82;28.79
63654;BME280;49809;47.418;19.080;2023-04-22T14:31:58;100219.44;;;21.39;27.75
63654;BME280;49809;47.418;19.080;2023-04-22T14:35:37;100206.50;;;22.03;26.95
63654;BME280;49809;47.418;19.080;2023-04-22T14:43:47;100207.41;;;22.28;27.80
63654;BME280;49809;47.418;19.080;2023-04-22T14:46:53;100201.72;;;22.41;27.44
63654;BME280;49809;47.418;19.080;2023-04-22T14:50:40;100206.13;;;22.46;27.56
63654;BME280;49809;47.418;19.080;2023-04-22T14:54:47;100200.31;;;22.23;27.29
63654;BME280;49809;47.418;19.080;2023-04-22T15:02:47;100200.19;;;22.20;27.24
63654;BME280;49809;47.418;19.080;2023-04-22T15:06:13;100200.19;;;22.20;27.12
63654;BME280;49809;47.418;19.080;2023-04-22T15:10:03;100200.34;;;22.02;27.43
63654;BME280;49809;47.418;19.080;2023-04-22T15:13:54;100211.97;;;21.94;28.53
63654;BME280;49809;47.418;19.080;2023-04-22T15:21:38;100207.81;;;21.47;27.57
63654;BME280;49809;47.418;19.080;2023-04-22T15:24:42;100195.09;;;20.80;29.03
63654;BME280;49809;47.418;19.080;2023-04-22T15:28:41;100194.81;;;21.11;28.09
63654;BME280;49809;47.418;19.080;2023-04-22T15:32:44;100202.56;;;21.21;29.40
63654;BME280;49809;47.418;19.080;2023-04-22T15:36:09;100195.09;;;21.27;29.27
63654;BME280;49809;47.418;19.080;2023-04-22T15:39:45;100197.28;;;21.33;29.80
63654;BME280;49809;47.418;19.080;2023-04-22T15:43:53;100201.94;;;21.45;30.23
63654;BME280;49809;47.418;19.080;2023-04-22T15:47:32;100197.50;;;21.49;28.22
63654;BME280;49809;47.418;19.080;2023-04-22T15:51:19;100198.50;;;21.44;29.34
63654;BME280;49809;47.418;19.080;2023-04-22T15:55:00;100203.34;;;21.51;29.26
63654;BME280;49809;47.418;19.080;2023-04-22T15:58:23;100196.25;;;21.08;28.39
63654;BME280;49809;47.418;19.080;2023-04-22T16:01:59;100197.44;;;20.90;29.25
63654;BME280;49809;47.418;19.080;2023-04-22T16:05:50;100193.09;;;21.06;28.86
63654;BME280;49809;47.418;19.080;2023-04-22T16:09:44;100201.09;;;20.86;28.91
63654;BME280;49809;47.418;19.080;2023-04-22T16:13:16;100186.47;;;20.49;30.38
63654;BME280;49809;47.418;19.080;2023-04-22T16:16:53;100188.38;;;20.22;30.90
63654;BME280;49809;47.418;19.080;2023-04-22T16:20:41;100188.06;;;19.98;31.83
63654;BME280;49809;47.418;19.080;2023-04-22T16:24:05;100188.34;;;19.71;32.05
63654;BME280;49809;47.418;19.080;2023-04-22T16:27:42;100180.44;;;19.48;32.76
63654;BME280;49809;47.418;19.080;2023-04-22T16:32:01;100191.41;;;19.21;33.87
63654;BME280;49809;47.418;19.080;2023-04-22T16:35:30;100182.81;;;19.02;35.71
63654;BME280;49809;47.418;19.080;2023-04-22T16:43:14;100185.22;;;18.81;37.36
63654;BME280;49809;47.418;19.080;2023-04-22T16:47:03;100182.38;;;18.78;36.54
63654;BME280;49809;47.418;19.080;2023-04-22T16:50:31;100176.66;;;18.71;36.22
63654;BME280;49809;47.418;19.080;2023-04-22T16:54:07;100176.94;;;18.69;36.83
63654;BME280;49809;47.418;19.080;2023-04-22T16:57:57;100174.72;;;18.62;36.07
63654;BME280;49809;47.418;19.080;2023-04-22T17:17:11;100180.94;;;18.05;38.30
63654;BME280;49809;47.418;19.080;2023-04-22T17:20:58;100179.06;;;17.92;38.59
63654;BME280;49809;47.418;19.080;2023-04-22T17:24:59;100178.81;;;17.79;39.49
63654;BME280;49809;47.418;19.080;2023-04-22T17:28:33;100177.44;;;17.68;39.72
63654;BME280;49809;47.418;19.080;2023-04-22T17:32:42;100178.06;;;17.52;40.35
63654;BME280;49809;47.418;19.080;2023-04-22T17:40:58;100182.41;;;17.34;40.35
63654;BME280;49809;47.418;19.080;2023-04-22T17:54:39;100195.44;;;16.67;42.60
63654;BME280;49809;47.418;19.080;2023-04-22T17:58:05;100196.94;;;16.41;43.95
63654;BME280;49809;47.418;19.080;2023-04-22T18:01:52;100197.31;;;16.16;45.13
63654;BME280;49809;47.418;19.080;2023-04-22T18:05:49;100201.66;;;15.93;45.93
63654;BME280;49809;47.418;19.080;2023-04-22T18:09:20;100211.31;;;15.70;47.06
63654;BME280;49809;47.418;19.080;2023-04-22T18:13:15;100207.53;;;15.52;47.95
63654;BME280;49809;47.418;19.080;2023-04-22T18:16:43;100216.81;;;15.31;48.57
63654;BME280;49809;47.418;19.080;2023-04-22T18:21:04;100224.72;;;15.17;49.76
63654;BME280;49809;47.418;19.080;2023-04-22T18:24:46;100228.53;;;15.06;49.11
63654;BME280;49809;47.418;19.080;2023-04-22T18:28:32;100233.19;;;14.96;49.87
63654;BME280;49809;47.418;19.080;2023-04-22T18:32:16;100239.22;;;14.77;50.97
63654;BME280;49809;47.418;19.080;2023-04-22T18:43:53;100242.22;;;14.32;54.39
63654;BME280;49809;47.418;19.080;2023-04-22T18:47:08;100246.28;;;14.19;55.23
63654;BME280;49809;47.418;19.080;2023-04-22T18:51:00;100249.81;;;14.05;56.92
63654;BME280;49809;47.418;19.080;2023-04-22T19:06:13;100262.06;;;13.41;61.21
63654;BME280;49809;47.418;19.080;2023-04-22T19:09:38;100248.56;;;13.23;61.66
63654;BME280;49809;47.418;19.080;2023-04-22T19:13:14;100255.75;;;13.12;61.56
63654;BME280;49809;47.418;19.080;2023-04-22T19:17:03;100258.94;;;12.99;63.35
63654;BME280;49809;47.418;19.080;2023-04-22T19:20:09;100262.16;;;12.91;63.31
63654;BME280;49809;47.418;19.080;2023-04-22T19:23:52;100262.41;;;12.79;63.87
63654;BME280;49809;47.418;19.080;2023-04-22T19:31:56;100263.72;;;12.51;65.26
63654;BME280;49809;47.418;19.080;2023-04-22T19:40:23;100257.87;;;12.29;66.91
63654;BME280;49809;47.418;19.080;2023-04-22T19:52:12;100257.00;;;12.03;69.13
63654;BME280;49809;47.418;19.080;2023-04-22T20:04:33;100255.00;;;11.68;70.14
63654;BME280;49809;47.418;19.080;2023-04-22T20:11:48;100254.94;;;11.53;71.56
63654;BME280;49809;47.418;19.080;2023-04-22T20:15:18;100262.34;;;11.46;71.21
63654;BME280;49809;47.418;19.080;2023-04-22T20:18:46;100263.56;;;11.33;73.11